الصفحة الرئيسية
METAR-TAF:

METAR-TAF

مطار :

Río Hato, بنما

دائرة عرض: 08-22-33N, خط طول: 080-07-40W, ارتفاع: 32 متر

مراقبة الطقس الحالي

تاريخ ووقت الإصدار 37 دقيقة قبل الساعة 18:00UTC
ريح 9 عقدة من الجنوب
درجة الحرارة 29°درجة مئوية
الرطوبة 70%
ضغط 1011 hPa
الرؤية: 9000 متر
غيوم قليلة على ارتفاع 2000 قدم

METAR: MPSM 041800Z 17009KT 9000 FEW020 29/23 Q1011

زمن: 13:37 (18:37 UTC)

توقعات

تاريخ ووقت الإصدار 1ساعة و 37 دقيقة قبل الساعة 17:00UTC
التوقعات صالحة من04 الساعة 18 UTC إلى 05 الساعة 24 UTC
ريح 8 عقدة من الشمال/الشمال الغربي
الرؤية 10 كم أو أكثر
غيوم متفرقة على ارتفاع 1800 قدم
مؤقت
من 04 الساعة 18 UTC إلى 04 الساعة 22 UTC
ريح 9 عقدة من الجنوب/الجنوب الشرقي
مؤقت
من 05 الساعة 01 UTC إلى 05 الساعة 05 UTC
الرؤية 10 كم أو أكثر
الغيوم لا تقل 1500 م ولا وجود لمزنة ركامية السحاب الأسود
مؤقت
من 05 الساعة 06 UTC إلى 05 الساعة 09 UTC
ريح عقدة من الشمال

TAF: MPSM 041700Z 0418/0524 33008KT 9999 SCT018 TEMPO 0418/0422 16009KT TEMPO 0501/0505 CAVOK TEMPO 0506/0509 00000KT

أرصاد الطقس والتوقعات من أكثر من 4000 مطار (تقارير الطقس للمطار METAR والتنبؤ بالطقس بالمطارTAF).

المحطات المتاحة هي النقط الصفراء والحمراء على الخريطة.

حرك المؤشر فوق النقطة لمعرفة اسم المحطة.

ثم انقر لمعرفة أرصاد وتوقعات الطقس.

لتغيير الخارطة: اضغط على الأزرار الخضراء مع رمز الصليب الأسود للتكبير. على الزر الأخضر مع شرطة للتصغير، أو على الأسهم الخضراء للخرائط المجاورة.


METAR-TAF: